createdAt,value
2022-10-05T00:00:51.266Z,99759.63
2022-10-05T00:01:53.870Z,99768.41
2022-10-05T00:02:56.048Z,99770.25
2022-10-05T00:04:06.520Z,99769.47
2022-10-05T00:05:20.398Z,99772.31
2022-10-05T00:06:22.437Z,99762.91
2022-10-05T00:07:25.124Z,99780.28
2022-10-05T00:08:31.928Z,99771.91
2022-10-05T00:09:34.298Z,99778.44
2022-10-05T00:10:36.641Z,99772.50
2022-10-05T00:11:38.356Z,99788.06
2022-10-05T00:12:40.056Z,99773.72
2022-10-05T00:13:42.484Z,99777.66
2022-10-05T00:14:46.246Z,99778.47
2022-10-05T00:15:49.071Z,99781.50
2022-10-05T00:16:51.236Z,99783.34
2022-10-05T00:17:53.180Z,99766.84
2022-10-05T00:18:54.804Z,99778.25
2022-10-05T00:19:56.854Z,99786.00
2022-10-05T00:20:58.522Z,99780.50
2022-10-05T00:22:12.124Z,99778.84
2022-10-05T00:23:24.940Z,99782.31
2022-10-05T00:24:26.623Z,99759.69
2022-10-05T00:25:28.658Z,99751.94
2022-10-05T00:26:33.588Z,99776.44
2022-10-05T00:27:38.140Z,99777.22
2022-10-05T00:28:41.237Z,99785.78
2022-10-05T00:29:42.961Z,99778.47
2022-10-05T00:30:45.021Z,99773.56
2022-10-05T00:31:46.894Z,99787.25
2022-10-05T00:32:49.213Z,99772.53
2022-10-05T00:33:51.054Z,99781.75
2022-10-05T00:34:52.796Z,99787.84
2022-10-05T00:35:55.639Z,99784.16
2022-10-05T00:36:58.581Z,99780.69
2022-10-05T00:38:00.286Z,99771.13
2022-10-05T00:39:02.354Z,99785.78
2022-10-05T00:40:39.514Z,99785.78
2022-10-05T00:41:47.081Z,99789.47
2022-10-05T00:42:48.659Z,99785.78
2022-10-05T00:44:21.230Z,99788.66
2022-10-05T00:45:29.006Z,99779.28
2022-10-05T00:46:59.934Z,99789.09
2022-10-05T00:48:13.294Z,99786.44
2022-10-05T00:49:39.638Z,99780.09
2022-10-05T00:50:59.550Z,99784.59
2022-10-05T00:52:24.500Z,99781.31
2022-10-05T00:53:26.105Z,99788.25
2022-10-05T00:54:46.548Z,99779.91
2022-10-05T00:56:35.734Z,99775.00
2022-10-05T00:58:06.901Z,99763.97
2022-10-05T00:59:37.211Z,99777.25
2022-10-05T01:01:04.917Z,99768.25
2022-10-05T01:02:23.718Z,99769.47
2022-10-05T01:03:39.419Z,99744.16
2022-10-05T01:04:47.430Z,99766.81
2022-10-05T01:06:22.688Z,99771.50
2022-10-05T01:07:30.304Z,99763.75
2022-10-05T01:08:51.526Z,99770.31
2022-10-05T01:10:16.068Z,99764.78
2022-10-05T01:11:17.684Z,99767.81
2022-10-05T01:12:31.432Z,99760.88
2022-10-05T01:14:11.933Z,99757.22
2022-10-05T01:15:21.990Z,99762.53
2022-10-05T01:17:05.091Z,99763.97
2022-10-05T01:18:16.497Z,99770.47
2022-10-05T01:19:50.084Z,99766.00
2022-10-05T01:20:57.633Z,99774.56
2022-10-05T01:22:34.476Z,99770.91
2022-10-05T01:23:51.484Z,99770.22
2022-10-05T01:25:18.101Z,99765.31
2022-10-05T01:26:38.256Z,99769.00
2022-10-05T01:27:48.284Z,99779.59
2022-10-05T01:28:53.064Z,99773.66
2022-10-05T01:30:10.931Z,99775.69
2022-10-05T01:31:25.860Z,99774.47
2022-10-05T01:33:02.744Z,99762.41
2022-10-05T01:34:17.114Z,99764.88
2022-10-05T01:35:24.601Z,99764.88
2022-10-05T01:36:37.608Z,99770.78
2022-10-05T01:37:48.432Z,99774.66
2022-10-05T01:38:55.855Z,99771.75
2022-10-05T01:40:21.973Z,99779.09
2022-10-05T01:41:51.383Z,99775.41
2022-10-05T01:43:20.708Z,99784.19
2022-10-05T01:44:46.259Z,99789.28
2022-10-05T01:46:06.695Z,99793.97
2022-10-05T01:47:21.753Z,99786.59
2022-10-05T01:48:43.298Z,99794.34
2022-10-05T01:50:01.882Z,99774.53
2022-10-05T01:51:12.965Z,99797.19
2022-10-05T01:52:56.576Z,99805.75
2022-10-05T01:54:35.423Z,99803.44
2022-10-05T01:56:03.842Z,99804.69
2022-10-05T01:57:35.837Z,99804.25
2022-10-05T01:58:50.822Z,99809.09
2022-10-05T02:00:01.615Z,99805.84
2022-10-05T02:01:24.356Z,99787.00
2022-10-05T02:02:28.780Z,99820.88
2022-10-05T02:03:37.307Z,99819.44
2022-10-05T02:05:04.676Z,99799.00
2022-10-05T02:06:21.548Z,99818.38
2022-10-05T02:07:29.616Z,99822.44
2022-10-05T02:08:38.799Z,99826.47
2022-10-05T02:09:58.663Z,99815.78
2022-10-05T02:11:06.308Z,99825.13
2022-10-05T02:12:16.158Z,99827.53
2022-10-05T02:13:48.104Z,99826.47
2022-10-05T02:14:54.772Z,99836.41
2022-10-05T02:16:16.996Z,99825.28
2022-10-05T02:17:28.330Z,99842.00
2022-10-05T02:18:35.978Z,99841.78
2022-10-05T02:19:37.587Z,99842.53
2022-10-05T02:20:42.442Z,99848.66
2022-10-05T02:21:49.102Z,99835.66
2022-10-05T02:22:54.842Z,99847.78
2022-10-05T02:24:02.884Z,99855.06
2022-10-05T02:25:15.458Z,99816.63
2022-10-05T02:26:19.259Z,99861.28
2022-10-05T02:27:28.126Z,99859.22
2022-10-05T02:28:38.358Z,99844.88
2022-10-05T02:29:45.741Z,99862.78
2022-10-05T02:30:53.140Z,99857.47
2022-10-05T02:32:03.654Z,99854.13
2022-10-05T02:33:13.998Z,99856.13
2022-10-05T02:34:24.810Z,99861.97
2022-10-05T02:35:26.634Z,99853.56
2022-10-05T02:36:35.703Z,99840.78
2022-10-05T02:37:54.472Z,99862.72
2022-10-05T02:39:11.327Z,99857.06
2022-10-05T02:40:18.836Z,99869.56
2022-10-05T02:41:28.906Z,99870.56
2022-10-05T02:42:48.334Z,99864.63
2022-10-05T02:44:16.879Z,99864.09
2022-10-05T02:45:49.169Z,99875.97
2022-10-05T02:47:03.573Z,99879.59
2022-10-05T02:48:11.196Z,99875.97
2022-10-05T02:49:34.342Z,99887.16
2022-10-05T02:50:49.446Z,99882.88
2022-10-05T02:52:17.161Z,99883.50
2022-10-05T02:53:33.754Z,99873.56
2022-10-05T02:54:50.176Z,99879.47
2022-10-05T02:55:57.788Z,99869.38
2022-10-05T02:57:19.336Z,99865.72
2022-10-05T02:58:25.918Z,99866.53
2022-10-05T02:59:38.869Z,99851.34
2022-10-05T03:00:48.091Z,99866.19
2022-10-05T03:01:55.823Z,99859.88
2022-10-05T03:03:06.466Z,99869.06
2022-10-05T03:04:28.646Z,99859.69
2022-10-05T03:05:43.581Z,99870.59
2022-10-05T03:06:58.856Z,99871.84
2022-10-05T03:08:22.391Z,99865.75
2022-10-05T03:09:32.030Z,99873.13
2022-10-05T03:10:33.674Z,99880.69
2022-10-05T03:11:38.217Z,99871.38
2022-10-05T03:12:50.018Z,99857.09
2022-10-05T03:14:12.064Z,99880.19
2022-10-05T03:15:58.926Z,99876.16
2022-10-05T03:17:22.962Z,99874.59
2022-10-05T03:18:55.799Z,99863.56
2022-10-05T03:20:22.751Z,99871.19
2022-10-05T03:21:42.112Z,99871.19
2022-10-05T03:23:04.716Z,99874.28
2022-10-05T03:24:24.709Z,99872.25
2022-10-05T03:25:38.614Z,99879.00
2022-10-05T03:26:43.400Z,99874.94
2022-10-05T03:27:57.237Z,99870.47
2022-10-05T03:29:10.884Z,99876.66
2022-10-05T03:30:23.912Z,99871.44
2022-10-05T03:31:56.443Z,99870.88
2022-10-05T03:33:13.208Z,99875.63
2022-10-05T03:34:30.181Z,99875.03
2022-10-05T03:35:58.622Z,99858.09
2022-10-05T03:37:19.005Z,99871.25
2022-10-05T03:39:18.101Z,99872.66
2022-10-05T03:40:34.721Z,99878.41
2022-10-05T03:42:05.906Z,99878.22
2022-10-05T03:43:13.380Z,99878.66
2022-10-05T03:44:32.967Z,99876.41
2022-10-05T03:46:02.501Z,99881.53
2022-10-05T03:47:33.215Z,99878.69
2022-10-05T03:48:50.200Z,99878.25
2022-10-05T03:50:19.531Z,99886.44
2022-10-05T03:51:32.167Z,99884.03
2022-10-05T03:52:45.997Z,99883.03
2022-10-05T03:53:54.717Z,99872.56
2022-10-05T03:55:05.686Z,99889.13
2022-10-05T03:56:17.061Z,99894.22
2022-10-05T03:57:23.423Z,99893.84
2022-10-05T03:58:36.025Z,99891.84
2022-10-05T04:00:01.065Z,99888.16
2022-10-05T04:01:08.937Z,99888.16
2022-10-05T04:02:24.009Z,99896.13
2022-10-05T04:03:55.970Z,99899.59
2022-10-05T04:05:16.716Z,99895.94
2022-10-05T04:06:24.753Z,99891.63
2022-10-05T04:07:38.906Z,99890.63
2022-10-05T04:09:00.531Z,99887.34
2022-10-05T04:10:07.684Z,99895.75
2022-10-05T04:11:31.900Z,99888.38
2022-10-05T04:12:38.937Z,99895.56
2022-10-05T04:13:56.256Z,99906.34
2022-10-05T04:15:03.158Z,99891.78
2022-10-05T04:16:17.276Z,99915.66
2022-10-05T04:17:35.771Z,99912.00
2022-10-05T04:18:43.952Z,99900.31
2022-10-05T04:19:57.185Z,99918.69
2022-10-05T04:21:11.848Z,99920.97
2022-10-05T04:22:22.841Z,99921.97
2022-10-05T04:23:39.204Z,99927.84
2022-10-05T04:24:49.335Z,99905.97
2022-10-05T04:25:56.988Z,99926.16
2022-10-05T04:27:11.601Z,99937.31
2022-10-05T04:28:46.258Z,99930.16
2022-10-05T04:29:57.208Z,99930.34
2022-10-05T04:31:04.031Z,99923.78
2022-10-05T04:32:08.451Z,99930.09
2022-10-05T04:33:16.128Z,99940.06
2022-10-05T04:34:41.011Z,99931.50
2022-10-05T04:36:05.080Z,99939.00
2022-10-05T04:37:16.013Z,99936.34
2022-10-05T04:38:48.885Z,99941.19
2022-10-05T04:40:00.793Z,99936.91
2022-10-05T04:41:34.699Z,99936.28
2022-10-05T04:42:47.560Z,99938.91
2022-10-05T04:43:58.239Z,99938.91
2022-10-05T04:45:28.973Z,99941.34
2022-10-05T04:47:08.041Z,99942.53
2022-10-05T04:48:59.032Z,99933.13
2022-10-05T04:50:24.546Z,99940.50
2022-10-05T04:51:52.252Z,99948.91
2022-10-05T04:53:09.369Z,99940.38
2022-10-05T04:54:44.825Z,99942.47
2022-10-05T04:56:05.466Z,99922.44
2022-10-05T04:57:13.832Z,99946.59
2022-10-05T04:58:21.556Z,99947.06
2022-10-05T04:59:26.174Z,99954.44
2022-10-05T05:00:35.507Z,99955.66
2022-10-05T05:02:18.916Z,99953.28
2022-10-05T05:03:39.449Z,99962.47
2022-10-05T05:04:52.294Z,99959.25
2022-10-05T05:06:18.037Z,99964.09
2022-10-05T05:07:29.957Z,99961.59
2022-10-05T05:08:46.251Z,99968.38
2022-10-05T05:10:06.512Z,99965.34
2022-10-05T05:11:24.652Z,99969.19
2022-10-05T05:12:46.592Z,99977.72
2022-10-05T05:14:26.968Z,99978.34
2022-10-05T05:15:42.833Z,99978.91
2022-10-05T05:16:49.884Z,99980.41
2022-10-05T05:18:33.665Z,99980.66
2022-10-05T05:19:38.105Z,99984.16
2022-10-05T05:20:45.894Z,99990.59
2022-10-05T05:22:06.191Z,99982.13
2022-10-05T05:23:16.763Z,99981.19
2022-10-05T05:24:30.315Z,99978.97
2022-10-05T05:25:44.954Z,99988.66
2022-10-05T05:26:58.594Z,99980.81
2022-10-05T05:28:12.504Z,99984.63
2022-10-05T05:29:14.244Z,99979.44
2022-10-05T05:30:35.895Z,99985.16
2022-10-05T05:31:53.453Z,99982.66
2022-10-05T05:33:07.392Z,99994.97
2022-10-05T05:34:38.901Z,99973.28
2022-10-05T05:35:59.174Z,99992.50
2022-10-05T05:37:28.281Z,99994.56
2022-10-05T05:38:35.773Z,99993.97
2022-10-05T05:40:17.145Z,99991.75
2022-10-05T05:41:32.991Z,99995.44
2022-10-05T05:42:58.290Z,99984.22
2022-10-05T05:44:26.219Z,99996.91
2022-10-05T05:45:44.283Z,100001.03
2022-10-05T05:47:03.914Z,99999.63
2022-10-05T05:48:17.034Z,100002.50
2022-10-05T05:49:25.123Z,100009.69
2022-10-05T05:51:05.558Z,100007.47
2022-10-05T05:52:24.464Z,99987.06
2022-10-05T05:53:39.541Z,100000.97
2022-10-05T05:54:54.945Z,100007.28
2022-10-05T05:56:05.565Z,100011.97
2022-10-05T05:57:11.907Z,100003.41
2022-10-05T05:58:27.568Z,100019.38
2022-10-05T05:59:43.784Z,100005.88
2022-10-05T06:00:58.551Z,100016.50
2022-10-05T06:02:09.501Z,100012.81
2022-10-05T06:03:16.709Z,100016.03
2022-10-05T06:04:37.936Z,100023.81
2022-10-05T06:05:49.693Z,100022.03
2022-10-05T06:06:54.139Z,100026.69
2022-10-05T06:08:03.471Z,100025.31
2022-10-05T06:09:30.636Z,100032.63
2022-10-05T06:10:52.048Z,100026.53
2022-10-05T06:11:55.934Z,100045.34
2022-10-05T06:13:03.922Z,100043.97
2022-10-05T06:14:29.795Z,100049.75
2022-10-05T06:15:43.932Z,100053.47
2022-10-05T06:16:54.404Z,100051.22
2022-10-05T06:18:01.220Z,100053.47
2022-10-05T06:19:10.520Z,100049.38
2022-10-05T06:20:27.545Z,100048.91
2022-10-05T06:21:37.511Z,100052.78
2022-10-05T06:22:43.611Z,100054.16
2022-10-05T06:23:54.507Z,100056.19
2022-10-05T06:25:15.867Z,100061.09
2022-10-05T06:26:48.955Z,100067.63
2022-10-05T06:28:16.358Z,100054.88
2022-10-05T06:29:23.139Z,100072.22
2022-10-05T06:30:26.633Z,100072.34
2022-10-05T06:31:58.884Z,100069.47
2022-10-05T06:33:25.026Z,100068.66
2022-10-05T06:34:45.160Z,100071.88
2022-10-05T06:36:23.725Z,100080.94
2022-10-05T06:37:33.135Z,100070.75
2022-10-05T06:39:07.440Z,100072.97
2022-10-05T06:40:22.060Z,100022.78
2022-10-05T06:41:45.210Z,100074.41
2022-10-05T06:43:12.946Z,100074.09
2022-10-05T06:44:22.573Z,100073.31
2022-10-05T06:45:35.141Z,100059.56
2022-10-05T06:46:50.217Z,100070.00
2022-10-05T06:48:04.291Z,100078.72
2022-10-05T06:49:31.408Z,100074.63
2022-10-05T06:50:42.611Z,100054.44
2022-10-05T06:51:59.589Z,100076.94
2022-10-05T06:53:01.299Z,100073.53
2022-10-05T06:54:27.436Z,100061.47
2022-10-05T06:55:34.770Z,100066.38
2022-10-05T06:56:47.873Z,100066.03
2022-10-05T06:58:27.959Z,100065.78
2022-10-05T06:59:35.660Z,100065.66
2022-10-05T07:00:44.153Z,100064.19
2022-10-05T07:01:51.031Z,100059.47
2022-10-05T07:03:20.561Z,100059.16
2022-10-05T07:04:40.887Z,100065.53
2022-10-05T07:06:12.085Z,100052.38
2022-10-05T07:07:32.704Z,100058.38
2022-10-05T07:08:34.292Z,100054.34
2022-10-05T07:10:06.755Z,100053.25
2022-10-05T07:11:41.486Z,100053.78
2022-10-05T07:12:46.106Z,100055.06
2022-10-05T07:13:51.374Z,100048.19
2022-10-05T07:14:58.700Z,100053.53
2022-10-05T07:16:58.959Z,100052.09
2022-10-05T07:18:09.321Z,100056.13
2022-10-05T07:19:19.437Z,100051.13
2022-10-05T07:20:24.002Z,100059.63
2022-10-05T07:21:35.756Z,100056.31
2022-10-05T07:22:50.651Z,100045.38
2022-10-05T07:24:24.429Z,100053.28
2022-10-05T07:25:37.125Z,100042.91
2022-10-05T07:26:47.690Z,100041.91
2022-10-05T07:27:58.264Z,100050.56
2022-10-05T07:29:33.720Z,100052.59
2022-10-05T07:30:47.780Z,100052.13
2022-10-05T07:32:14.254Z,100046.53
2022-10-05T07:33:29.065Z,100051.78
2022-10-05T07:34:33.618Z,100051.13
2022-10-05T07:36:21.992Z,100048.44
2022-10-05T07:38:00.348Z,100046.31
2022-10-05T07:39:09.812Z,100052.69
2022-10-05T07:40:29.871Z,100049.91
2022-10-05T07:41:44.202Z,100046.38
2022-10-05T07:43:15.289Z,100045.06
2022-10-05T07:44:32.190Z,100041.59
2022-10-05T07:45:39.731Z,100040.00
2022-10-05T07:46:44.980Z,100037.72
2022-10-05T07:48:14.031Z,100041.31
2022-10-05T07:49:18.561Z,100030.63
2022-10-05T07:50:34.001Z,100038.75
2022-10-05T07:51:45.436Z,100038.94
2022-10-05T07:52:56.616Z,100042.56
2022-10-05T07:53:58.218Z,100040.16
2022-10-05T07:55:15.904Z,100047.94
2022-10-05T07:56:29.599Z,100038.97
2022-10-05T07:57:44.984Z,100046.81
2022-10-05T07:59:01.865Z,100040.38
2022-10-05T08:00:20.448Z,100050.25
2022-10-05T08:01:27.032Z,100039.72
2022-10-05T08:02:52.552Z,100047.28
2022-10-05T08:03:54.287Z,100053.72
2022-10-05T08:05:04.084Z,100057.09
2022-10-05T08:06:11.500Z,100052.53
2022-10-05T08:07:17.474Z,100054.22
2022-10-05T08:08:42.482Z,100058.41
2022-10-05T08:10:23.769Z,100056.28
2022-10-05T08:11:58.747Z,100060.50
2022-10-05T08:13:12.331Z,100056.75
2022-10-05T08:14:24.547Z,100043.31
2022-10-05T08:15:33.153Z,100063.44
2022-10-05T08:16:38.450Z,100067.22
2022-10-05T08:17:56.937Z,100056.47
2022-10-05T08:19:21.447Z,100058.50
2022-10-05T08:20:28.578Z,100067.22
2022-10-05T08:21:40.336Z,100051.19
2022-10-05T08:22:47.414Z,100061.38
2022-10-05T08:24:00.962Z,100060.00
2022-10-05T08:25:06.081Z,100052.81
2022-10-05T08:26:13.580Z,100055.97
2022-10-05T08:27:44.318Z,100062.84
2022-10-05T08:28:59.390Z,100059.59
2022-10-05T08:30:11.813Z,100060.41
2022-10-05T08:31:29.905Z,100059.47
2022-10-05T08:32:55.214Z,100058.59
2022-10-05T08:34:27.802Z,100060.56
2022-10-05T08:35:38.045Z,100051.78
2022-10-05T08:36:39.696Z,100068.44
2022-10-05T08:37:43.283Z,100061.69
2022-10-05T08:38:45.720Z,100065.47
2022-10-05T08:40:14.735Z,100061.25
2022-10-05T08:41:29.564Z,100058.72
2022-10-05T08:43:05.535Z,100064.28
2022-10-05T08:44:44.714Z,100061.72
2022-10-05T08:45:46.830Z,100060.34
2022-10-05T08:47:06.719Z,100054.22
2022-10-05T08:48:56.390Z,100054.28
2022-10-05T08:50:13.339Z,100054.59
2022-10-05T08:51:52.438Z,100055.56
2022-10-05T08:52:56.897Z,100052.41
2022-10-05T08:54:07.624Z,100049.19
2022-10-05T08:55:27.695Z,100047.22
2022-10-05T08:56:29.301Z,100048.13
2022-10-05T08:57:46.730Z,100045.22
2022-10-05T08:59:00.764Z,100044.53
2022-10-05T09:00:10.488Z,100029.94
2022-10-05T09:01:30.926Z,100037.22
2022-10-05T09:02:50.957Z,100044.53
2022-10-05T09:04:11.634Z,100044.78
2022-10-05T09:05:29.018Z,100040.94
2022-10-05T09:06:45.644Z,100042.72
2022-10-05T09:08:08.750Z,100042.78
2022-10-05T09:09:41.019Z,100050.19
2022-10-05T09:10:48.624Z,100046.00
2022-10-05T09:12:21.311Z,100047.13
2022-10-05T09:13:25.586Z,100050.34
2022-10-05T09:14:32.807Z,100046.19
2022-10-05T09:15:56.106Z,100042.81
2022-10-05T09:17:00.659Z,100032.84
2022-10-05T09:18:56.234Z,100034.09
2022-10-05T09:20:15.196Z,100029.44
2022-10-05T09:21:40.835Z,100040.41
2022-10-05T09:23:10.343Z,100027.81
2022-10-05T09:24:15.014Z,100031.94
2022-10-05T09:26:07.334Z,100035.16
2022-10-05T09:27:12.991Z,100032.78
2022-10-05T09:28:25.735Z,100033.09
2022-10-05T09:30:01.426Z,100034.53
2022-10-05T09:31:22.533Z,100042.44
2022-10-05T09:32:33.089Z,100034.56
2022-10-05T09:33:56.113Z,100029.72
2022-10-05T09:35:18.191Z,100024.38
2022-10-05T09:36:37.461Z,100033.22
2022-10-05T09:37:57.921Z,100031.09
2022-10-05T09:39:37.176Z,100035.19
2022-10-05T09:41:16.135Z,100030.88
2022-10-05T09:42:24.370Z,100025.53
2022-10-05T09:43:51.532Z,100029.19
2022-10-05T09:45:08.314Z,100026.94
2022-10-05T09:46:28.711Z,100025.03
2022-10-05T09:47:47.945Z,100032.44
2022-10-05T09:49:15.863Z,100028.72
2022-10-05T09:50:32.605Z,100023.69
2022-10-05T09:51:50.156Z,100027.81
2022-10-05T09:53:13.334Z,100031.81
2022-10-05T09:54:53.327Z,100028.22
2022-10-05T09:56:26.020Z,100033.03
2022-10-05T09:57:36.508Z,100029.31
2022-10-05T09:59:07.621Z,100028.00
2022-10-05T10:00:09.696Z,100028.72
2022-10-05T10:01:33.521Z,100028.19
2022-10-05T10:03:04.946Z,100022.53
2022-10-05T10:04:31.244Z,100024.06
2022-10-05T10:06:05.554Z,100024.47
2022-10-05T10:07:40.892Z,100024.72
2022-10-05T10:08:52.256Z,100027.47
2022-10-05T10:10:15.605Z,100039.41
2022-10-05T10:11:29.167Z,100030.38
2022-10-05T10:13:05.013Z,100032.09
2022-10-05T10:14:45.281Z,100033.97
2022-10-05T10:16:13.038Z,100021.56
2022-10-05T10:17:33.714Z,100034.69
2022-10-05T10:18:54.103Z,100031.00
2022-10-05T10:20:06.530Z,100027.09
2022-10-05T10:21:30.218Z,100010.19
2022-10-05T10:23:05.557Z,100026.66
2022-10-05T10:24:44.484Z,100028.44
2022-10-05T10:26:11.887Z,100018.75
2022-10-05T10:27:27.566Z,100018.28
2022-10-05T10:28:32.348Z,100017.28
2022-10-05T10:29:41.329Z,100000.56
2022-10-05T10:31:01.266Z,100019.16
2022-10-05T10:32:23.208Z,100011.59
2022-10-05T10:33:49.857Z,100013.09
2022-10-05T10:34:54.261Z,100005.84
2022-10-05T10:36:27.331Z,100012.94
2022-10-05T10:37:53.184Z,100014.28
2022-10-05T10:39:17.843Z,100010.84
2022-10-05T10:40:56.131Z,100008.28
2022-10-05T10:42:35.217Z,100009.94
2022-10-05T10:43:53.300Z,100013.97
2022-10-05T10:45:23.083Z,100000.59
2022-10-05T10:46:49.222Z,100006.63
2022-10-05T10:48:10.990Z,100005.69
2022-10-05T10:49:34.272Z,100010.19
2022-10-05T10:50:36.187Z,100009.38
2022-10-05T10:51:53.067Z,100005.53
2022-10-05T10:53:04.765Z,100001.34
2022-10-05T10:54:24.509Z,100005.69
2022-10-05T10:55:57.230Z,100002.28
2022-10-05T10:57:05.603Z,100001.97
2022-10-05T10:58:08.039Z,99999.09
2022-10-05T10:59:17.372Z,100000.66
2022-10-05T11:00:30.742Z,100003.66
2022-10-05T11:02:14.967Z,99997.09
2022-10-05T11:03:35.256Z,100004.31
2022-10-05T11:05:01.785Z,100002.88
2022-10-05T11:06:21.542Z,99998.06
2022-10-05T11:07:50.423Z,99997.25
2022-10-05T11:09:11.394Z,99993.50
2022-10-05T11:10:34.425Z,99998.47
2022-10-05T11:11:52.030Z,99991.22
2022-10-05T11:13:15.619Z,99991.91
2022-10-05T11:14:29.893Z,99987.47
2022-10-05T11:16:01.167Z,99996.03
2022-10-05T11:17:21.225Z,100001.84
2022-10-05T11:18:50.662Z,99991.50
2022-10-05T11:20:15.204Z,99983.44
2022-10-05T11:21:26.271Z,99990.72
2022-10-05T11:22:41.116Z,99992.84
2022-10-05T11:24:06.904Z,99983.25
2022-10-05T11:25:42.898Z,99985.63
2022-10-05T11:26:59.882Z,99985.34
2022-10-05T11:28:25.504Z,99984.97
2022-10-05T11:30:14.018Z,99986.59
2022-10-05T11:31:53.451Z,99986.78
2022-10-05T11:33:32.958Z,99980.06
2022-10-05T11:34:59.007Z,99983.41
2022-10-05T11:36:08.947Z,99992.56
2022-10-05T11:37:38.251Z,99975.72
2022-10-05T11:39:07.111Z,99972.31
2022-10-05T11:40:33.517Z,99978.47
2022-10-05T11:42:02.737Z,99984.09
2022-10-05T11:43:42.373Z,99983.44
2022-10-05T11:45:24.561Z,99970.94
2022-10-05T11:46:57.907Z,99973.13
2022-10-05T11:48:02.313Z,99972.88
2022-10-05T11:49:29.252Z,99977.13
2022-10-05T11:50:39.880Z,99974.88
2022-10-05T11:51:51.816Z,99964.44
2022-10-05T11:52:59.858Z,99970.78
2022-10-05T11:54:58.609Z,99963.28
2022-10-05T11:56:34.818Z,99951.94
2022-10-05T11:57:43.043Z,99953.53
2022-10-05T11:58:58.687Z,99961.38
2022-10-05T12:00:13.579Z,99961.09
2022-10-05T12:01:20.007Z,99952.44
2022-10-05T12:02:39.963Z,99957.84
2022-10-05T12:03:53.461Z,99950.28
2022-10-05T12:05:03.677Z,99957.59
2022-10-05T12:06:40.856Z,99962.22
2022-10-05T12:07:51.426Z,99956.56
2022-10-05T12:09:05.329Z,99959.28
2022-10-05T12:10:44.912Z,99952.53
2022-10-05T12:12:10.873Z,99956.06
2022-10-05T12:13:15.242Z,99951.47
2022-10-05T12:14:41.312Z,99960.09
2022-10-05T12:15:48.336Z,99944.19
2022-10-05T12:16:59.146Z,99946.59
2022-10-05T12:18:13.687Z,99949.00
2022-10-05T12:19:26.217Z,99952.25
2022-10-05T12:20:53.479Z,99949.03
2022-10-05T12:22:04.163Z,99937.13
2022-10-05T12:23:16.788Z,99943.81
2022-10-05T12:24:26.776Z,99949.53
2022-10-05T12:25:47.437Z,99946.28
2022-10-05T12:27:04.745Z,99948.44
2022-10-05T12:28:15.808Z,99946.31
2022-10-05T12:29:32.358Z,99943.31
2022-10-05T12:30:55.706Z,99935.19
2022-10-05T12:32:21.768Z,99939.19
2022-10-05T12:33:35.005Z,99938.13
2022-10-05T12:35:03.475Z,99938.66
2022-10-05T12:36:14.874Z,99938.41
2022-10-05T12:37:39.821Z,99910.88
2022-10-05T12:38:51.991Z,99934.63
2022-10-05T12:40:02.306Z,99924.84
2022-10-05T12:41:45.490Z,99931.34
2022-10-05T12:43:00.853Z,99905.19
2022-10-05T12:44:37.699Z,99918.69
2022-10-05T12:45:46.253Z,99925.41
2022-10-05T12:47:18.275Z,99924.03
2022-10-05T12:48:37.925Z,99924.31
2022-10-05T12:50:01.351Z,99920.50
2022-10-05T12:51:27.654Z,99924.81
2022-10-05T12:53:03.069Z,99936.41
2022-10-05T12:55:26.181Z,99934.47
2022-10-05T12:57:06.067Z,99928.00
2022-10-05T12:58:38.811Z,99935.28
2022-10-05T13:00:22.744Z,99931.50
2022-10-05T13:02:49.316Z,99937.41
2022-10-05T13:04:09.056Z,99924.75
2022-10-05T13:05:10.660Z,99933.44
2022-10-05T13:06:35.423Z,99926.72
2022-10-05T13:07:49.959Z,99928.47
2022-10-05T13:08:56.032Z,99927.34
2022-10-05T13:10:17.282Z,99933.31
2022-10-05T13:11:28.459Z,99935.50
2022-10-05T13:12:39.702Z,99938.72
2022-10-05T13:13:57.792Z,99940.09
2022-10-05T13:15:08.099Z,99916.94
2022-10-05T13:16:28.415Z,99928.38
2022-10-05T13:18:07.360Z,99929.31
2022-10-05T13:19:31.994Z,99933.84
2022-10-05T13:20:59.456Z,99937.63
2022-10-05T13:22:37.800Z,99933.63
2022-10-05T13:23:48.272Z,99940.13
2022-10-05T13:25:19.065Z,99939.63
2022-10-05T13:26:44.486Z,99941.31
2022-10-05T13:27:53.588Z,99938.38
2022-10-05T13:29:13.322Z,99932.25
2022-10-05T13:30:20.731Z,99937.63
2022-10-05T13:31:27.511Z,99940.88
2022-10-05T13:32:39.172Z,99938.78
2022-10-05T13:33:55.759Z,99940.09
2022-10-05T13:35:19.076Z,99939.03
2022-10-05T13:36:40.916Z,99923.97
2022-10-05T13:37:45.315Z,99933.69
2022-10-05T13:39:03.817Z,99939.94
2022-10-05T13:40:19.671Z,99935.63
2022-10-05T13:41:56.827Z,99932.72
2022-10-05T13:43:06.236Z,99940.28
2022-10-05T13:44:29.318Z,99942.41
2022-10-05T13:46:05.320Z,99932.47
2022-10-05T13:47:16.827Z,99940.84
2022-10-05T13:48:40.037Z,99930.38
2022-10-05T13:49:57.978Z,99886.06
2022-10-05T13:51:06.125Z,99880.44
2022-10-05T13:52:10.561Z,99918.53
2022-10-05T13:53:23.936Z,99912.63
2022-10-05T13:54:42.921Z,99912.59
2022-10-05T13:55:49.552Z,99908.56
2022-10-05T13:57:22.345Z,99906.66
2022-10-05T13:58:51.489Z,99915.31
2022-10-05T14:00:02.249Z,99909.91
2022-10-05T14:01:14.443Z,99914.22
2022-10-05T14:02:22.191Z,99913.16
2022-10-05T14:03:36.045Z,99913.16
2022-10-05T14:04:50.917Z,99915.31
2022-10-05T14:05:58.219Z,99907.47
2022-10-05T14:07:21.747Z,99913.41
2022-10-05T14:08:28.882Z,99906.97
2022-10-05T14:09:34.196Z,99912.34
2022-10-05T14:10:38.461Z,99910.72
2022-10-05T14:12:02.835Z,99905.59
2022-10-05T14:13:33.767Z,99905.59
2022-10-05T14:14:57.040Z,99910.47
2022-10-05T14:16:28.263Z,99911.81
2022-10-05T14:17:43.502Z,99907.75
2022-10-05T14:18:55.889Z,99908.31
2022-10-05T14:20:00.908Z,99913.16
2022-10-05T14:21:08.422Z,99908.56
2022-10-05T14:22:13.076Z,99905.34
2022-10-05T14:23:24.567Z,99912.09
2022-10-05T14:24:46.116Z,99912.09
2022-10-05T14:25:54.010Z,99911.78
2022-10-05T14:26:57.792Z,99907.19
2022-10-05T14:28:02.953Z,99913.72
2022-10-05T14:29:19.503Z,99896.69
2022-10-05T14:30:24.159Z,99909.66
2022-10-05T14:31:37.197Z,99908.81
2022-10-05T14:32:59.293Z,99912.59
2022-10-05T14:34:54.872Z,99911.53
2022-10-05T14:35:58.639Z,99910.16
2022-10-05T14:37:18.351Z,99901.84
2022-10-05T14:38:53.459Z,99915.28
2022-10-05T14:40:20.808Z,99914.78
2022-10-05T14:41:28.024Z,99865.94
2022-10-05T14:42:46.304Z,99914.22
2022-10-05T14:44:15.443Z,99916.91
2022-10-05T14:45:21.668Z,99916.66
2022-10-05T14:46:28.789Z,99902.91
2022-10-05T14:47:32.229Z,99909.66
2022-10-05T14:48:44.820Z,99916.94
2022-10-05T14:50:14.046Z,99928.25
2022-10-05T14:51:31.971Z,99931.50
2022-10-05T14:52:34.853Z,99913.16
2022-10-05T14:53:43.401Z,99918.00
2022-10-05T14:55:21.741Z,99923.41
2022-10-05T14:56:58.234Z,99913.69
2022-10-05T14:58:14.049Z,99916.13
2022-10-05T14:59:46.049Z,99917.47
2022-10-05T15:00:58.846Z,99918.00
2022-10-05T15:02:18.540Z,99912.59
2022-10-05T15:03:40.783Z,99913.94
2022-10-05T15:05:01.839Z,99895.81
2022-10-05T15:06:08.784Z,99896.06
2022-10-05T15:07:30.920Z,99911.19
2022-10-05T15:09:00.683Z,99917.41